To NAV CANADA Home Page Login to a new session Search on AWWS site Disclaimer Vers la page française équivalente Tips FAQ What's new on the site To the Forecasts and Observations / NOTAM section To "File a Flight Plan" website Publications and other links Update of the User's profile FIC Telephone Numbers My Weather Data Folder Route Weather Data Regional Weather Data Local Weather Data To the Forecasts and Observations / NOTAM section
Request Generated 01/21/2021 at 02:51:22 UTC . Weather information available at that time is displayed.

METAR/TAF

If you find any discrepancies between the coded METAR/TAF and the plain language METAR/TAF please use the coded METAR/TAF. LWIS bulletins are not decoded in plain language.

CALGARY/YYC CALGARY INTL/AB    

METAR CYYC 210200Z 33009G15KT 15SM FEW090 M02/M13 A2989 RMK AC2 SLP184=
METAR
LOCATION
CYYC - CALGARY/YYC CALGARY INTL/AB
DATE - TIME
21 JANUARY 2021 - 0200 UTC
WIND
330 TRUE @ 9  KNOTS
GUSTS
15 KNOTS
VISIBILITY
15 STAT.  MILES
RUNWAY VISUAL RANGE
WEATHER
CLOUDINESS
FEW CLOUDS (1/8 - 2/8) 9000  FT
TEMP / DEWPOINT
-2 C / -13 C
ALTIMETER
29.89 IN HG
RECENT WEATHER
WIND SHEAR

METAR CYYC 210100Z 32010G19KT 15SM FEW190 M01/M13 A2987 RMK AC1 AC TR SLP173=
METAR
LOCATION
CYYC - CALGARY/YYC CALGARY INTL/AB
DATE - TIME
21 JANUARY 2021 - 0100 UTC
WIND
320 TRUE @ 10  KNOTS
GUSTS
19 KNOTS
VISIBILITY
15 STAT.  MILES
RUNWAY VISUAL RANGE
WEATHER
CLOUDINESS
FEW CLOUDS (1/8 - 2/8) 19000  FT
TEMP / DEWPOINT
-1 C / -13 C
ALTIMETER
29.87 IN HG
RECENT WEATHER
WIND SHEAR

METAR CYYC 210000Z 34009KT 40SM FEW190 M01/M12 A2985 RMK AC1 AC TR SLP165=
METAR
LOCATION
CYYC - CALGARY/YYC CALGARY INTL/AB
DATE - TIME
21 JANUARY 2021 - 0000 UTC
WIND
340 TRUE @ 9  KNOTS
VISIBILITY
40 STAT.  MILES
RUNWAY VISUAL RANGE
WEATHER
CLOUDINESS
FEW CLOUDS (1/8 - 2/8) 19000  FT
TEMP / DEWPOINT
-1 C / -12 C
ALTIMETER
29.85 IN HG
RECENT WEATHER
WIND SHEAR

TAF CYYC 210250Z 2103/2124 34008G18KT P6SM FEW090 FM211200 30006KT P6SM SCT050 FM211800 29010KT P6SM FEW050 RMK NXT FCST BY 210600Z=
TAF
LOCATION

CYYC - CALGARY/YYC CALGARY INTL/AB
VALIDITY [UTC]
21 JAN - 0250 to
22 JAN - 0000
 
TIMES
[UTC]
WIND
[DEGREES TRUE]
VISIBILITY
[STAT. MILES]
WEATHER
CLOUDINESS
[FEET AGL]
 
21 JAN - 0300 to
21 JAN - 1200
340 @ 8 KNOTS
GUSTS 18 KNOTS
6+
NIL
9000 FEW
 
21 JAN - 1200 to
21 JAN - 1800
300 @ 6 KNOTS
6+
NIL
5000 SCATTERED
 
21 JAN - 1800 to
22 JAN - 0000
290 @ 10 KNOTS
6+
NIL
5000 FEW
REMARKS
THE NEXT FORECAST WILL BE ISSUED BY 0600 UTC ON DAY 21


Your time UTC time
Weather data provided by Environment Canada and NAV CANADA